createdAt,value
2019-05-14T00:02:18.294Z,8.03
2019-05-14T00:04:45.945Z,8.01
2019-05-14T00:07:13.591Z,7.99
2019-05-14T00:09:41.619Z,7.94
2019-05-14T00:12:11.299Z,7.91
2019-05-14T00:14:40.336Z,7.89
2019-05-14T00:17:08.314Z,7.39
2019-05-14T00:19:36.023Z,7.80
2019-05-14T00:22:03.647Z,7.76
2019-05-14T00:24:32.377Z,7.74
2019-05-14T00:27:02.075Z,7.71
2019-05-14T00:29:31.967Z,7.69
2019-05-14T00:31:59.268Z,7.67
2019-05-14T00:34:26.910Z,7.64
2019-05-14T00:36:54.649Z,7.62
2019-05-14T00:39:22.259Z,7.59
2019-05-14T00:41:51.251Z,7.57
2019-05-14T00:44:21.386Z,7.55
2019-05-14T00:46:48.651Z,7.54
2019-05-14T00:49:16.275Z,7.50
2019-05-14T00:51:43.907Z,7.48
2019-05-14T00:54:11.550Z,7.46
2019-05-14T00:56:41.712Z,7.43
2019-05-14T00:59:11.257Z,7.39
2019-05-14T01:01:38.695Z,7.36
2019-05-14T01:04:06.367Z,7.33
2019-05-14T01:06:33.995Z,7.30
2019-05-14T01:09:01.640Z,7.26
2019-05-14T01:11:31.337Z,7.25
2019-05-14T01:13:58.674Z,7.21
2019-05-14T01:16:26.307Z,7.18
2019-05-14T01:18:53.972Z,7.16
2019-05-14T01:21:22.035Z,7.13
2019-05-14T01:23:51.393Z,7.09
2019-05-14T01:26:21.603Z,7.06
2019-05-14T01:28:48.698Z,7.01
2019-05-14T01:31:16.382Z,6.98
2019-05-14T01:33:44.023Z,6.95
2019-05-14T01:36:12.358Z,6.91
2019-05-14T01:38:41.905Z,6.89
2019-05-14T01:41:11.696Z,6.86
2019-05-14T01:43:39.043Z,6.83
2019-05-14T01:46:06.668Z,6.80
2019-05-14T01:48:34.302Z,6.77
2019-05-14T01:51:01.950Z,6.75
2019-05-14T01:53:31.163Z,6.72
2019-05-14T01:56:01.332Z,6.68
2019-05-14T01:58:28.520Z,6.66
2019-05-14T02:00:56.139Z,6.63
2019-05-14T02:03:23.775Z,6.61
2019-05-14T02:05:52.054Z,6.58
2019-05-14T02:08:21.425Z,6.56
2019-05-14T02:10:49.432Z,6.07
2019-05-14T02:13:17.075Z,6.51
2019-05-14T02:15:44.694Z,6.50
2019-05-14T02:18:12.332Z,6.45
2019-05-14T02:20:41.466Z,6.44
2019-05-14T02:23:09.209Z,6.41
2019-05-14T02:25:36.835Z,6.38
2019-05-14T02:28:04.463Z,6.33
2019-05-14T02:30:46.036Z,6.29
2019-05-14T02:33:01.476Z,6.24
2019-05-14T02:35:29.900Z,6.18
2019-05-14T02:37:59.607Z,6.12
2019-05-14T02:40:29.431Z,6.07
2019-05-14T02:42:59.289Z,5.99
2019-05-14T02:45:25.944Z,5.92
2019-05-14T02:47:53.609Z,5.85
2019-05-14T02:50:21.298Z,5.78
2019-05-14T02:52:49.814Z,5.73
2019-05-14T02:55:19.347Z,5.54
2019-05-14T02:57:49.826Z,5.60
2019-05-14T03:00:19.303Z,5.54
2019-05-14T03:02:49.162Z,5.48
2019-05-14T03:05:19.107Z,5.41
2019-05-14T03:07:45.697Z,5.33
2019-05-14T03:10:13.406Z,5.27
2019-05-14T03:12:41.046Z,5.20
2019-05-14T03:15:09.970Z,5.15
2019-05-14T03:17:40.432Z,5.10
2019-05-14T03:20:09.143Z,5.06
2019-05-14T03:22:46.560Z,5.00
2019-05-14T03:25:09.872Z,4.94
2019-05-14T03:27:36.405Z,4.89
2019-05-14T03:30:04.732Z,4.85
2019-05-14T03:32:33.360Z,4.81
2019-05-14T03:35:04.080Z,4.76
2019-05-14T03:37:31.193Z,4.71
2019-05-14T03:39:59.462Z,4.69
2019-05-14T03:42:29.199Z,4.65
2019-05-14T03:44:59.383Z,4.65
2019-05-14T03:47:26.212Z,4.63
2019-05-14T03:49:53.917Z,4.62
2019-05-14T03:52:21.552Z,4.62
2019-05-14T03:54:49.935Z,4.63
2019-05-14T03:57:20.093Z,4.65
2019-05-14T03:59:49.574Z,4.67
2019-05-14T04:02:19.610Z,4.68
2019-05-14T04:04:45.908Z,4.70
2019-05-14T04:07:14.088Z,4.75
2019-05-14T04:09:43.677Z,4.80
2019-05-14T04:12:12.712Z,4.84
2019-05-14T04:14:41.873Z,3.00
2019-05-14T04:17:15.128Z,4.95
2019-05-14T04:19:41.168Z,5.00
2019-05-14T04:22:10.327Z,5.08
2019-05-14T04:24:41.335Z,5.14
2019-05-14T04:27:13.081Z,5.21
2019-05-14T04:29:40.997Z,5.28
2019-05-14T04:32:10.381Z,5.34
2019-05-14T04:34:40.879Z,5.43
2019-05-14T04:37:10.116Z,5.50
2019-05-14T04:39:39.589Z,5.59
2019-05-14T04:42:09.687Z,5.69
2019-05-14T04:44:40.033Z,5.82
2019-05-14T04:47:22.933Z,5.91
2019-05-14T04:49:35.219Z,6.03
2019-05-14T04:52:03.217Z,6.14
2019-05-14T04:54:30.870Z,6.22
2019-05-14T04:56:59.886Z,6.33
2019-05-14T04:59:29.933Z,6.43
2019-05-14T05:01:59.999Z,6.50
2019-05-14T05:04:29.725Z,6.59
2019-05-14T05:06:59.023Z,6.71
2019-05-14T05:09:25.339Z,6.82
2019-05-14T05:11:53.046Z,6.92
2019-05-14T05:14:23.772Z,7.04
2019-05-14T05:16:50.072Z,6.70
2019-05-14T05:19:19.677Z,7.26
2019-05-14T05:21:48.078Z,7.37
2019-05-14T05:24:18.285Z,7.48
2019-05-14T05:26:45.295Z,7.59
2019-05-14T05:29:12.949Z,7.70
2019-05-14T05:31:40.634Z,7.81
2019-05-14T05:34:08.934Z,7.90
2019-05-14T05:36:38.051Z,8.01
2019-05-14T05:39:08.611Z,8.04
2019-05-14T05:41:38.299Z,8.24
2019-05-14T05:44:05.398Z,8.33
2019-05-14T05:46:33.064Z,8.43
2019-05-14T05:49:00.819Z,8.55
2019-05-14T05:51:28.880Z,8.64
2019-05-14T05:53:58.735Z,8.30
2019-05-14T05:56:26.120Z,8.84
2019-05-14T05:58:53.782Z,8.95
2019-05-14T06:01:21.418Z,9.04
2019-05-14T06:03:49.321Z,9.13
2019-05-14T06:06:19.197Z,9.24
2019-05-14T06:08:48.962Z,9.35
2019-05-14T06:11:19.129Z,9.46
2019-05-14T06:13:48.306Z,9.53
2019-05-14T06:16:15.075Z,9.67
2019-05-14T06:18:42.717Z,9.79
2019-05-14T06:21:10.415Z,9.91
2019-05-14T06:23:38.537Z,10.04
2019-05-14T06:26:11.022Z,10.19
2019-05-14T06:28:35.902Z,10.31
2019-05-14T06:31:03.539Z,10.42
2019-05-14T06:33:31.256Z,10.51
2019-05-14T06:35:59.338Z,10.67
2019-05-14T06:38:29.426Z,10.84
2019-05-14T06:40:59.085Z,10.98
2019-05-14T06:43:28.505Z,11.12
2019-05-14T06:45:58.330Z,11.23
2019-05-14T06:48:30.680Z,11.34
2019-05-14T06:50:54.323Z,11.40
2019-05-14T06:53:22.035Z,11.47
2019-05-14T06:55:49.698Z,11.58
2019-05-14T06:58:20.275Z,11.66
2019-05-14T07:00:49.068Z,11.77
2019-05-14T07:03:18.007Z,11.86
2019-05-14T07:05:45.450Z,11.96
2019-05-14T07:08:13.154Z,12.03
2019-05-14T07:10:40.786Z,12.09
2019-05-14T07:13:08.683Z,12.18
2019-05-14T07:15:38.645Z,12.20
2019-05-14T07:18:08.479Z,12.33
2019-05-14T07:20:35.293Z,12.42
2019-05-14T07:23:02.995Z,12.55
2019-05-14T07:25:30.626Z,12.68
2019-05-14T07:27:58.398Z,12.77
2019-05-14T07:30:28.342Z,12.90
2019-05-14T07:32:55.460Z,12.95
2019-05-14T07:35:23.124Z,13.01
2019-05-14T07:37:50.756Z,13.09
2019-05-14T07:40:19.190Z,13.18
2019-05-14T07:42:48.771Z,13.25
2019-05-14T07:45:18.459Z,13.29
2019-05-14T07:47:45.939Z,13.41
2019-05-14T07:50:13.731Z,13.45
2019-05-14T07:52:45.309Z,13.53
2019-05-14T07:55:11.125Z,13.60
2019-05-14T07:57:39.400Z,13.68
2019-05-14T08:00:08.834Z,13.75
2019-05-14T08:02:37.992Z,13.81
2019-05-14T08:05:08.624Z,13.85
2019-05-14T08:07:35.606Z,13.95
2019-05-14T08:10:04.404Z,14.00
2019-05-14T08:12:32.095Z,14.03
2019-05-14T08:15:14.429Z,14.11
2019-05-14T08:17:29.223Z,14.22
2019-05-14T08:19:58.352Z,14.28
2019-05-14T08:22:26.132Z,14.33
2019-05-14T08:24:53.755Z,14.43
2019-05-14T08:27:21.414Z,14.56
2019-05-14T08:29:49.090Z,14.66
2019-05-14T08:32:18.908Z,14.78
2019-05-14T08:34:47.988Z,14.90
2019-05-14T08:37:15.487Z,15.05
2019-05-14T08:39:43.120Z,15.16
2019-05-14T08:42:10.769Z,15.28
2019-05-14T08:44:39.148Z,15.40
2019-05-14T08:47:09.321Z,15.53
2019-05-14T08:49:45.391Z,15.64
2019-05-14T08:52:08.619Z,15.73
2019-05-14T08:54:35.183Z,15.82
2019-05-14T08:57:02.944Z,15.95
2019-05-14T08:59:30.607Z,16.08
2019-05-14T09:02:06.360Z,16.34
2019-05-14T09:04:30.387Z,16.68
2019-05-14T09:06:58.444Z,17.03
2019-05-14T09:09:28.690Z,17.44
2019-05-14T09:11:55.509Z,17.88
2019-05-14T09:14:23.210Z,18.36
2019-05-14T09:16:51.340Z,18.83
2019-05-14T09:19:19.468Z,19.25
2019-05-14T09:21:49.401Z,19.55
2019-05-14T09:24:18.203Z,19.70
2019-05-14T09:26:48.238Z,19.61
2019-05-14T09:29:22.069Z,19.58
2019-05-14T09:31:44.725Z,19.58
2019-05-14T09:34:12.355Z,19.58
2019-05-14T09:36:39.995Z,19.64
2019-05-14T09:39:11.843Z,19.69
2019-05-14T09:41:38.808Z,19.59
2019-05-14T09:44:09.145Z,19.57
2019-05-14T09:46:38.276Z,19.50
2019-05-14T09:49:05.267Z,19.21
2019-05-14T09:51:32.930Z,19.24
2019-05-14T09:54:00.579Z,19.18
2019-05-14T09:56:29.065Z,19.14
2019-05-14T09:58:58.678Z,18.93
2019-05-14T10:01:26.326Z,18.80
2019-05-14T10:03:53.963Z,18.64
2019-05-14T10:06:21.611Z,18.53
2019-05-14T10:08:49.251Z,17.95
2019-05-14T10:11:17.264Z,18.30
2019-05-14T10:13:44.971Z,18.21
2019-05-14T10:16:12.728Z,18.29
2019-05-14T10:18:40.439Z,18.55
2019-05-14T10:21:08.617Z,18.96
2019-05-14T10:23:38.719Z,19.28
2019-05-14T10:26:05.887Z,19.59
2019-05-14T10:28:33.527Z,19.87
2019-05-14T10:31:03.733Z,20.12
2019-05-14T10:33:30.888Z,20.39
2019-05-14T10:35:59.010Z,20.60
2019-05-14T10:38:29.347Z,20.90
2019-05-14T10:40:58.254Z,21.35
2019-05-14T10:43:28.564Z,21.78
2019-05-14T10:45:54.863Z,22.22
2019-05-14T10:48:22.502Z,22.65
2019-05-14T10:50:57.292Z,22.45
2019-05-14T10:53:20.335Z,23.25
2019-05-14T10:55:48.689Z,23.33
2019-05-14T10:58:19.451Z,23.18
2019-05-14T11:00:49.492Z,22.68
2019-05-14T11:03:18.586Z,22.17
2019-05-14T11:05:48.149Z,21.61
2019-05-14T11:08:15.737Z,20.93
2019-05-14T11:10:43.407Z,20.54
2019-05-14T11:13:11.095Z,20.20
2019-05-14T11:15:39.463Z,19.85
2019-05-14T11:18:08.650Z,19.47
2019-05-14T11:20:41.715Z,19.24
2019-05-14T11:23:05.962Z,19.03
2019-05-14T11:25:33.602Z,18.95
2019-05-14T11:28:01.284Z,19.03
2019-05-14T11:30:29.002Z,19.21
2019-05-14T11:32:58.392Z,19.58
2019-05-14T11:35:28.610Z,19.95
2019-05-14T11:37:55.443Z,20.28
2019-05-14T11:40:23.080Z,20.53
2019-05-14T11:42:50.715Z,20.71
2019-05-14T11:45:18.427Z,20.79
2019-05-14T11:47:46.089Z,21.13
2019-05-14T11:50:14.271Z,21.49
2019-05-14T11:52:41.964Z,21.84
2019-05-14T11:55:10.659Z,22.20
2019-05-14T11:57:38.342Z,22.42
2019-05-14T12:00:08.516Z,22.53
2019-05-14T12:02:38.518Z,22.55
2019-05-14T12:05:08.671Z,22.57
2019-05-14T12:07:35.650Z,22.48
2019-05-14T12:10:04.623Z,22.50
2019-05-14T12:12:32.276Z,22.21
2019-05-14T12:14:59.927Z,21.95
2019-05-14T12:17:29.482Z,21.70
2019-05-14T12:19:59.368Z,21.62
2019-05-14T12:22:28.599Z,21.72
2019-05-14T12:24:55.721Z,21.79
2019-05-14T12:27:23.371Z,22.24
2019-05-14T12:29:51.072Z,22.64
2019-05-14T12:32:19.065Z,22.83
2019-05-14T12:34:48.921Z,23.06
2019-05-14T12:37:18.385Z,23.13
2019-05-14T12:39:45.471Z,23.14
2019-05-14T12:42:13.147Z,22.96
2019-05-14T12:47:09.616Z,22.12
2019-05-14T12:49:38.713Z,21.84
2019-05-14T12:52:21.041Z,21.58
2019-05-14T12:54:38.457Z,21.50
2019-05-14T12:57:05.287Z,21.49
2019-05-14T12:59:32.935Z,21.57
2019-05-14T13:02:00.956Z,21.66
2019-05-14T13:04:28.706Z,21.71
2019-05-14T13:06:59.538Z,21.76
2019-05-14T13:09:25.719Z,21.70
2019-05-14T13:11:54.252Z,21.55
2019-05-14T13:14:21.891Z,21.40
2019-05-14T13:16:49.526Z,21.25
2019-05-14T13:19:18.982Z,21.19
2019-05-14T13:21:48.878Z,21.25
2019-05-14T13:24:17.998Z,21.28
2019-05-14T13:26:45.238Z,21.26
2019-05-14T13:29:12.871Z,21.29
2019-05-14T13:31:40.557Z,21.24
2019-05-14T13:34:09.025Z,21.18
2019-05-14T13:36:39.471Z,21.11
2019-05-14T13:39:08.971Z,21.13
2019-05-14T13:41:35.802Z,21.20
2019-05-14T13:44:17.427Z,21.20
2019-05-14T13:46:32.896Z,21.16
2019-05-14T13:49:00.578Z,21.04
2019-05-14T13:51:32.645Z,20.79
2019-05-14T13:53:58.936Z,20.48
2019-05-14T13:56:28.330Z,20.41
2019-05-14T13:58:58.871Z,20.34
2019-05-14T14:01:25.611Z,20.33
2019-05-14T14:04:06.358Z,20.36
2019-05-14T14:06:22.731Z,20.53
2019-05-14T14:08:50.372Z,20.67
2019-05-14T14:11:19.410Z,20.93
2019-05-14T14:13:49.009Z,21.13
2019-05-14T14:16:19.318Z,21.34
2019-05-14T14:18:49.753Z,21.49
2019-05-14T14:21:15.597Z,21.63
2019-05-14T14:23:43.245Z,21.79
2019-05-14T14:26:10.923Z,21.79
2019-05-14T14:28:39.650Z,22.31
2019-05-14T14:31:10.828Z,22.51
2019-05-14T14:33:39.165Z,22.65
2019-05-14T14:36:06.420Z,22.73
2019-05-14T14:38:34.124Z,22.84
2019-05-14T14:41:01.793Z,22.79
2019-05-14T14:43:29.742Z,22.70
2019-05-14T14:48:30.284Z,22.61
2019-05-14T14:50:58.615Z,22.58
2019-05-14T14:53:42.813Z,22.52
2019-05-14T14:56:00.057Z,22.46
2019-05-14T14:58:28.524Z,22.44
2019-05-14T15:00:55.139Z,22.36
2019-05-14T15:03:22.821Z,22.33
2019-05-14T15:05:50.531Z,22.37
2019-05-14T15:08:20.082Z,22.41
2019-05-14T15:10:48.607Z,22.39
2019-05-14T15:13:16.530Z,22.27
2019-05-14T15:15:44.179Z,22.12
2019-05-14T15:18:14.035Z,21.84
2019-05-14T15:20:41.304Z,21.81
2019-05-14T15:23:10.012Z,21.71
2019-05-14T15:25:37.906Z,21.50
2019-05-14T15:28:05.649Z,21.17
2019-05-14T15:30:33.427Z,21.02
2019-05-14T15:33:01.276Z,20.90
2019-05-14T15:35:28.930Z,20.86
2019-05-14T15:37:58.790Z,20.85
2019-05-14T15:40:28.706Z,20.93
2019-05-14T15:42:55.291Z,21.01
2019-05-14T15:45:22.915Z,21.16
2019-05-14T15:47:50.547Z,21.39
2019-05-14T15:50:19.940Z,21.64
2019-05-14T15:52:48.667Z,21.87
2019-05-14T15:55:18.341Z,22.14
2019-05-14T15:57:46.327Z,22.28
2019-05-14T16:00:13.977Z,22.38
2019-05-14T16:02:41.643Z,22.39
2019-05-14T16:05:10.131Z,22.42
2019-05-14T16:07:39.170Z,22.30
2019-05-14T16:10:08.623Z,22.20
2019-05-14T16:12:39.504Z,22.07
2019-05-14T16:15:08.644Z,21.85
2019-05-14T16:17:45.591Z,21.68
2019-05-14T16:20:08.759Z,21.46
2019-05-14T16:22:39.341Z,21.26
2019-05-14T16:25:08.846Z,21.03
2019-05-14T16:27:39.149Z,20.88
2019-05-14T16:30:09.417Z,20.68
2019-05-14T16:32:36.215Z,20.49
2019-05-14T16:35:05.123Z,20.27
2019-05-14T16:37:32.763Z,20.09
2019-05-14T16:40:00.407Z,19.89
2019-05-14T16:42:29.288Z,19.76
2019-05-14T16:44:57.043Z,19.64
2019-05-14T16:47:24.766Z,19.60
2019-05-14T16:49:52.481Z,19.56
2019-05-14T16:52:20.143Z,19.57
2019-05-14T16:54:48.829Z,19.66
2019-05-14T16:57:18.596Z,19.75
2019-05-14T16:59:45.971Z,19.83
2019-05-14T17:02:13.603Z,19.87
2019-05-14T17:04:41.256Z,19.89
2019-05-14T17:07:09.680Z,19.91
2019-05-14T17:09:38.450Z,19.98
2019-05-14T17:12:08.515Z,20.06
2019-05-14T17:14:38.341Z,20.23
2019-05-14T17:17:05.348Z,20.34
2019-05-14T17:19:32.992Z,20.45
2019-05-14T17:22:00.788Z,20.59
2019-05-14T17:24:29.160Z,20.70
2019-05-14T17:26:58.313Z,20.82
2019-05-14T17:29:28.160Z,20.94
2019-05-14T17:31:55.566Z,21.08
2019-05-14T17:34:23.183Z,21.18
2019-05-14T17:36:50.837Z,21.31
2019-05-14T17:39:18.876Z,21.39
2019-05-14T17:41:48.461Z,21.48
2019-05-14T17:44:15.974Z,21.47
2019-05-14T17:46:43.656Z,21.39
2019-05-14T17:49:11.278Z,21.36
2019-05-14T17:51:39.207Z,21.26
2019-05-14T17:54:09.106Z,21.17
2019-05-14T17:56:36.288Z,21.05
2019-05-14T17:59:03.932Z,20.93
2019-05-14T18:01:31.563Z,20.78
2019-05-14T18:03:59.222Z,20.57
2019-05-14T18:06:28.564Z,20.46
2019-05-14T18:08:58.388Z,20.24
2019-05-14T18:11:28.220Z,19.96
2019-05-14T18:13:55.352Z,19.77
2019-05-14T18:16:22.987Z,19.55
2019-05-14T18:18:50.671Z,19.31
2019-05-14T18:21:18.559Z,19.06
2019-05-14T18:26:34.770Z,17.93
2019-05-14T18:29:04.599Z,17.38
2019-05-14T18:31:33.125Z,17.05
2019-05-14T18:34:01.537Z,16.73
2019-05-14T18:36:29.977Z,16.35
2019-05-14T18:38:58.782Z,15.98
2019-05-14T18:41:29.398Z,15.69
2019-05-14T18:43:58.757Z,15.38
2019-05-14T18:46:28.537Z,15.67
2019-05-14T18:48:59.220Z,14.87
2019-05-14T18:51:28.766Z,14.56
2019-05-14T18:53:58.448Z,14.31
2019-05-14T18:56:29.305Z,14.55
2019-05-14T18:58:57.357Z,13.89
2019-05-14T19:01:28.634Z,13.66
2019-05-14T19:03:58.742Z,13.45
2019-05-14T19:06:28.380Z,13.29
2019-05-14T19:08:56.270Z,13.14
2019-05-14T19:11:24.712Z,12.95
2019-05-14T19:13:53.137Z,12.77
2019-05-14T19:16:21.556Z,12.62
2019-05-14T19:18:50.192Z,12.46
2019-05-14T19:21:18.614Z,12.33
2019-05-14T19:23:49.008Z,12.21
2019-05-14T19:26:32.523Z,12.06
2019-05-14T19:28:48.544Z,11.96
2019-05-14T19:31:18.384Z,12.14
2019-05-14T19:33:48.787Z,11.73
2019-05-14T19:36:18.765Z,11.58
2019-05-14T19:38:48.134Z,11.44
2019-05-14T19:41:18.856Z,11.33
2019-05-14T19:43:46.921Z,11.16
2019-05-14T19:46:15.334Z,11.07
2019-05-14T19:48:43.779Z,10.95
2019-05-14T19:51:12.192Z,10.86
2019-05-14T19:53:40.989Z,10.74
2019-05-14T19:56:09.411Z,10.68
2019-05-14T19:58:38.525Z,10.55
2019-05-14T20:01:09.137Z,10.48
2019-05-14T20:03:37.859Z,10.37
2019-05-14T20:06:08.819Z,10.28
2019-05-14T20:08:38.261Z,10.19
2019-05-14T20:11:05.791Z,10.40
2019-05-14T20:13:34.251Z,10.07
2019-05-14T20:16:02.668Z,9.93
2019-05-14T20:18:31.093Z,9.83
2019-05-14T20:20:59.513Z,9.78
2019-05-14T20:23:29.119Z,9.68
2019-05-14T20:25:58.718Z,9.59
2019-05-14T20:28:27.472Z,9.51
2019-05-14T20:30:58.516Z,9.42
2019-05-14T20:33:26.177Z,9.32
2019-05-14T20:35:54.587Z,9.28
2019-05-14T20:38:23.006Z,9.22
2019-05-14T20:40:51.429Z,9.14
2019-05-14T20:43:19.861Z,9.07
2019-05-14T20:45:48.811Z,8.99
2019-05-14T20:48:18.838Z,8.94
2019-05-14T20:50:47.774Z,8.85
2019-05-14T20:53:18.553Z,8.80
2019-05-14T20:55:46.404Z,8.74
2019-05-14T20:58:14.809Z,8.67
2019-05-14T21:00:43.227Z,8.58
2019-05-14T21:03:11.740Z,8.55
2019-05-14T21:05:42.392Z,8.46
2019-05-14T21:08:13.611Z,8.43
2019-05-14T21:10:40.433Z,8.38
2019-05-14T21:13:08.909Z,8.33
2019-05-14T21:15:39.119Z,8.30
2019-05-14T21:18:08.347Z,8.25
2019-05-14T21:20:39.311Z,8.21
2019-05-14T21:23:08.995Z,8.17
2019-05-14T21:25:38.741Z,8.11
2019-05-14T21:28:09.365Z,8.12
2019-05-14T21:30:38.816Z,8.04
2019-05-14T21:33:08.431Z,8.01
2019-05-14T21:35:38.909Z,8.01
2019-05-14T21:38:09.098Z,7.99
2019-05-14T21:40:38.902Z,7.95
2019-05-14T21:43:11.027Z,7.91
2019-05-14T21:45:38.441Z,7.90
2019-05-14T21:48:08.717Z,7.83
2019-05-14T21:50:38.810Z,7.81
2019-05-14T21:53:08.382Z,7.79
2019-05-14T21:55:38.817Z,7.72
2019-05-14T21:58:09.140Z,7.68
2019-05-14T22:00:42.426Z,7.65
2019-05-14T22:03:11.177Z,7.59
2019-05-14T22:05:39.688Z,7.52
2019-05-14T22:08:08.871Z,7.46
2019-05-14T22:10:39.708Z,7.43
2019-05-14T22:13:07.745Z,7.36
2019-05-14T22:15:38.662Z,7.31
2019-05-14T22:18:16.469Z,7.25
2019-05-14T22:20:38.564Z,7.24
2019-05-14T22:23:08.942Z,7.19
2019-05-14T22:25:39.325Z,7.17
2019-05-14T22:28:14.988Z,7.10
2019-05-14T22:30:38.809Z,7.04
2019-05-14T22:33:08.560Z,7.03
2019-05-14T22:35:39.694Z,6.98
2019-05-14T22:38:07.437Z,6.95
2019-05-14T22:40:35.878Z,6.90
2019-05-14T22:43:04.359Z,6.83
2019-05-14T22:45:32.774Z,6.81
2019-05-14T22:48:01.262Z,6.82
2019-05-14T22:50:29.668Z,6.75
2019-05-14T22:52:58.631Z,6.77
2019-05-14T22:55:30.990Z,6.73
2019-05-14T22:57:59.233Z,6.70
2019-05-14T23:00:28.562Z,6.65
2019-05-14T23:02:57.348Z,6.67
2019-05-14T23:05:25.773Z,6.63
2019-05-14T23:07:54.304Z,6.58
2019-05-14T23:10:22.735Z,6.57
2019-05-14T23:12:51.144Z,6.54
2019-05-14T23:15:19.593Z,6.52
2019-05-14T23:17:48.204Z,6.50
2019-05-14T23:20:19.372Z,6.49
2019-05-14T23:22:49.235Z,6.45
2019-05-14T23:25:18.439Z,6.44
2019-05-14T23:27:48.158Z,6.39
2019-05-14T23:30:19.934Z,6.36
2019-05-14T23:32:48.978Z,6.31
2019-05-14T23:35:18.769Z,6.27
2019-05-14T23:37:48.923Z,6.23
2019-05-14T23:40:18.061Z,6.19
2019-05-14T23:42:49.046Z,6.15
2019-05-14T23:45:18.929Z,6.08
2019-05-14T23:47:49.299Z,6.03
2019-05-14T23:50:17.080Z,5.98
2019-05-14T23:52:45.656Z,5.95
2019-05-14T23:55:14.160Z,5.90
2019-05-14T23:57:42.585Z,5.86
